createdAt,value
2023-05-09T00:01:55.766Z,12.73
2023-05-09T00:04:03.914Z,12.78
2023-05-09T00:06:15.763Z,12.79
2023-05-09T00:08:23.767Z,12.73
2023-05-09T00:10:32.056Z,12.66
2023-05-09T00:12:40.225Z,12.63
2023-05-09T00:14:51.987Z,12.53
2023-05-09T00:17:00.294Z,12.49
2023-05-09T00:19:08.236Z,12.46
2023-05-09T00:21:18.858Z,12.42
2023-05-09T00:23:27.090Z,12.37
2023-05-09T00:25:35.273Z,12.34
2023-05-09T00:27:43.292Z,12.30
2023-05-09T00:29:51.403Z,12.34
2023-05-09T00:31:59.412Z,12.37
2023-05-09T00:34:07.602Z,12.37
2023-05-09T00:36:20.213Z,12.36
2023-05-09T00:38:29.541Z,12.37
2023-05-09T00:40:37.524Z,12.34
2023-05-09T00:42:45.885Z,12.33
2023-05-09T00:44:55.733Z,12.32
2023-05-09T00:47:03.791Z,12.44
2023-05-09T00:49:12.654Z,12.24
2023-05-09T00:51:24.853Z,12.17
2023-05-09T00:53:33.008Z,12.20
2023-05-09T00:55:41.402Z,12.22
2023-05-09T00:57:49.445Z,12.20
2023-05-09T00:59:57.918Z,12.12
2023-05-09T01:02:07.185Z,12.11
2023-05-09T01:04:17.866Z,12.04
2023-05-09T01:06:39.830Z,12.02
2023-05-09T01:08:59.896Z,12.09
2023-05-09T01:11:14.570Z,12.08
2023-05-09T01:13:30.301Z,12.14
2023-05-09T01:15:43.919Z,12.17
2023-05-09T01:17:57.600Z,12.14
2023-05-09T01:20:13.686Z,12.15
2023-05-09T01:22:29.983Z,12.17
2023-05-09T01:25:01.454Z,12.14
2023-05-09T01:27:25.597Z,12.19
2023-05-09T01:29:47.688Z,12.18
2023-05-09T01:31:59.547Z,12.19
2023-05-09T01:34:10.129Z,12.23
2023-05-09T01:36:20.257Z,12.22
2023-05-09T01:38:29.130Z,12.19
2023-05-09T01:40:38.338Z,12.19
2023-05-09T01:42:48.875Z,12.19
2023-05-09T01:45:02.401Z,12.20
2023-05-09T01:47:11.757Z,12.14
2023-05-09T01:49:21.730Z,12.16
2023-05-09T01:51:31.875Z,12.05
2023-05-09T01:53:43.378Z,12.08
2023-05-09T01:55:53.679Z,11.99
2023-05-09T01:58:02.623Z,11.95
2023-05-09T02:00:18.348Z,11.95
2023-05-09T02:02:30.616Z,11.76
2023-05-09T02:04:40.829Z,11.67
2023-05-09T02:06:52.532Z,11.62
2023-05-09T02:09:01.057Z,11.59
2023-05-09T02:11:10.115Z,11.55
2023-05-09T02:13:18.879Z,11.44
2023-05-09T02:15:30.566Z,11.46
2023-05-09T02:17:38.643Z,11.43
2023-05-09T02:19:46.980Z,11.48
2023-05-09T02:21:55.981Z,11.42
2023-05-09T02:24:06.818Z,11.42
2023-05-09T02:26:17.443Z,11.45
2023-05-09T02:28:26.665Z,11.44
2023-05-09T02:30:48.646Z,11.47
2023-05-09T02:33:00.742Z,11.39
2023-05-09T02:35:13.246Z,11.40
2023-05-09T02:37:21.805Z,11.39
2023-05-09T02:39:29.843Z,11.39
2023-05-09T02:41:37.838Z,11.43
2023-05-09T02:43:46.258Z,11.53
2023-05-09T02:45:56.890Z,11.59
2023-05-09T02:48:07.718Z,11.59
2023-05-09T02:50:17.175Z,11.66
2023-05-09T02:52:26.200Z,11.70
2023-05-09T02:54:34.517Z,11.78
2023-05-09T02:56:42.575Z,11.77
2023-05-09T02:58:51.559Z,11.81
2023-05-09T03:01:02.827Z,11.86
2023-05-09T03:03:11.003Z,11.81
2023-05-09T03:05:21.460Z,11.76
2023-05-09T03:07:29.613Z,11.60
2023-05-09T03:09:39.291Z,11.62
2023-05-09T03:11:53.710Z,11.63
2023-05-09T03:14:01.906Z,11.62
2023-05-09T03:16:16.353Z,11.60
2023-05-09T03:18:25.090Z,11.66
2023-05-09T03:20:33.459Z,11.64
2023-05-09T03:22:42.218Z,11.61
2023-05-09T03:24:52.586Z,11.65
2023-05-09T03:27:00.745Z,11.64
2023-05-09T03:29:11.747Z,11.63
2023-05-09T03:31:24.741Z,11.63
2023-05-09T03:33:32.989Z,11.62
2023-05-09T03:35:44.668Z,11.65
2023-05-09T03:37:53.102Z,11.64
2023-05-09T03:40:01.628Z,11.62
2023-05-09T03:42:13.469Z,11.60
2023-05-09T03:44:23.441Z,11.59
2023-05-09T03:46:34.137Z,11.58
2023-05-09T03:48:42.687Z,11.62
2023-05-09T03:50:50.722Z,11.60
2023-05-09T03:53:02.693Z,11.58
2023-05-09T03:55:17.144Z,11.48
2023-05-09T03:57:25.353Z,11.44
2023-05-09T03:59:36.336Z,11.63
2023-05-09T04:01:49.279Z,11.51
2023-05-09T04:03:58.517Z,11.42
2023-05-09T04:06:08.550Z,11.41
2023-05-09T04:08:20.674Z,11.48
2023-05-09T04:10:28.943Z,11.58
2023-05-09T04:12:37.261Z,11.60
2023-05-09T04:14:48.795Z,11.63
2023-05-09T04:16:59.991Z,11.58
2023-05-09T04:19:07.975Z,11.62
2023-05-09T04:21:16.701Z,11.71
2023-05-09T04:23:28.616Z,11.84
2023-05-09T04:25:40.215Z,11.77
2023-05-09T04:27:48.791Z,11.73
2023-05-09T04:29:57.203Z,11.79
2023-05-09T04:32:08.600Z,11.81
2023-05-09T04:34:16.759Z,11.88
2023-05-09T04:36:24.823Z,12.09
2023-05-09T04:38:33.116Z,12.16
2023-05-09T04:40:41.481Z,12.33
2023-05-09T04:42:50.042Z,12.40
2023-05-09T04:44:58.862Z,12.51
2023-05-09T04:47:10.036Z,12.93
2023-05-09T04:49:19.100Z,13.48
2023-05-09T04:51:27.264Z,13.96
2023-05-09T04:53:35.172Z,13.76
2023-05-09T04:55:44.502Z,13.35
2023-05-09T04:57:52.951Z,13.36
2023-05-09T05:00:02.641Z,12.94
2023-05-09T05:02:13.276Z,13.07
2023-05-09T05:04:23.015Z,13.07
2023-05-09T05:06:32.056Z,13.15
2023-05-09T05:08:40.962Z,13.25
2023-05-09T05:10:51.346Z,13.47
2023-05-09T05:12:59.851Z,13.77
2023-05-09T05:15:10.240Z,13.89
2023-05-09T05:17:22.108Z,13.78
2023-05-09T05:19:31.006Z,13.88
2023-05-09T05:21:39.265Z,15.65
2023-05-09T05:23:47.594Z,17.89
2023-05-09T05:25:56.585Z,17.81
2023-05-09T05:28:04.817Z,18.67
2023-05-09T05:30:15.733Z,19.37
2023-05-09T05:32:27.470Z,19.71
2023-05-09T05:34:35.856Z,20.69
2023-05-09T05:36:45.091Z,19.69
2023-05-09T05:38:54.592Z,19.80
2023-05-09T05:41:04.180Z,19.17
2023-05-09T05:43:14.214Z,18.54
2023-05-09T05:45:22.737Z,18.02
2023-05-09T05:47:39.001Z,18.31
2023-05-09T05:49:47.862Z,18.37
2023-05-09T05:51:56.159Z,17.78
2023-05-09T05:54:04.546Z,16.16
2023-05-09T05:56:14.987Z,15.47
2023-05-09T05:58:28.120Z,15.40
2023-05-09T06:00:38.647Z,15.38
2023-05-09T06:02:52.330Z,14.72
2023-05-09T06:05:08.800Z,14.82
2023-05-09T06:07:17.434Z,15.04
2023-05-09T06:09:26.544Z,15.50
2023-05-09T06:11:34.645Z,15.75
2023-05-09T06:13:42.645Z,15.58
2023-05-09T06:15:52.134Z,14.67
2023-05-09T06:18:02.827Z,15.17
2023-05-09T06:20:12.691Z,15.50
2023-05-09T06:22:22.988Z,16.54
2023-05-09T06:24:35.597Z,16.43
2023-05-09T06:26:45.326Z,17.15
2023-05-09T06:28:54.459Z,18.33
2023-05-09T06:31:03.130Z,19.19
2023-05-09T06:33:15.801Z,19.72
2023-05-09T06:35:23.926Z,20.47
2023-05-09T06:37:37.617Z,21.51
2023-05-09T06:39:45.809Z,24.21
2023-05-09T06:41:53.803Z,26.25
2023-05-09T06:44:11.486Z,26.52
2023-05-09T06:46:21.684Z,26.46
2023-05-09T06:48:32.921Z,28.42
2023-05-09T06:50:40.878Z,27.63
2023-05-09T06:52:48.778Z,26.24
2023-05-09T06:54:56.672Z,25.13
2023-05-09T06:57:05.105Z,24.12
2023-05-09T06:59:13.710Z,24.35
2023-05-09T07:01:21.737Z,25.23
2023-05-09T07:03:34.568Z,26.41
2023-05-09T07:05:42.469Z,27.64
2023-05-09T07:07:50.342Z,27.29
2023-05-09T07:10:09.917Z,26.51
2023-05-09T07:12:18.977Z,25.25
2023-05-09T07:14:28.049Z,22.00
2023-05-09T07:16:37.589Z,22.74
2023-05-09T07:18:48.763Z,23.28
2023-05-09T07:20:57.057Z,21.98
2023-05-09T07:23:06.404Z,22.47
2023-05-09T07:25:14.831Z,23.79
2023-05-09T07:27:23.053Z,24.14
2023-05-09T07:29:33.748Z,24.74
2023-05-09T07:31:41.708Z,27.57
2023-05-09T07:33:52.532Z,27.35
2023-05-09T07:36:01.647Z,27.89
2023-05-09T07:38:09.683Z,27.40
2023-05-09T07:40:19.141Z,23.74
2023-05-09T07:42:27.242Z,22.28
2023-05-09T07:44:35.265Z,24.05
2023-05-09T07:46:43.243Z,26.24
2023-05-09T07:48:53.966Z,27.37
2023-05-09T07:51:01.890Z,25.61
2023-05-09T07:53:09.811Z,23.80
2023-05-09T07:55:18.000Z,24.03
2023-05-09T07:57:26.203Z,24.21
2023-05-09T07:59:34.397Z,23.15
2023-05-09T08:01:42.285Z,21.48
2023-05-09T08:03:50.381Z,22.17
2023-05-09T08:06:01.142Z,22.46
2023-05-09T08:08:09.223Z,22.08
2023-05-09T08:10:17.370Z,21.02
2023-05-09T08:12:25.373Z,21.09
2023-05-09T08:14:33.268Z,20.63
2023-05-09T08:16:43.601Z,19.71
2023-05-09T08:18:51.728Z,19.99
2023-05-09T08:21:02.583Z,21.05
2023-05-09T08:23:11.166Z,21.46
2023-05-09T08:25:20.988Z,20.41
2023-05-09T08:27:28.966Z,20.20
2023-05-09T08:29:36.912Z,20.12
2023-05-09T08:31:44.927Z,20.51
2023-05-09T08:33:52.871Z,20.72
2023-05-09T08:36:03.690Z,20.67
2023-05-09T08:38:13.224Z,19.92
2023-05-09T08:40:21.580Z,19.82
2023-05-09T08:42:34.033Z,20.28
2023-05-09T08:44:41.930Z,19.30
2023-05-09T08:46:52.902Z,19.43
2023-05-09T08:49:02.025Z,20.01
2023-05-09T08:51:14.117Z,19.56
2023-05-09T08:53:23.290Z,19.80
2023-05-09T08:55:31.728Z,19.30
2023-05-09T08:57:39.978Z,19.72
2023-05-09T08:59:49.158Z,20.69
2023-05-09T09:01:57.819Z,21.28
2023-05-09T09:04:08.430Z,21.08
2023-05-09T09:06:19.813Z,20.42
2023-05-09T09:08:29.969Z,21.20
2023-05-09T09:10:38.326Z,21.06
2023-05-09T09:12:49.490Z,21.35
2023-05-09T09:14:59.849Z,21.07
2023-05-09T09:17:09.404Z,21.67
2023-05-09T09:19:20.646Z,22.24
2023-05-09T09:21:32.308Z,21.40
2023-05-09T09:23:43.206Z,22.43
2023-05-09T09:25:51.362Z,23.57
2023-05-09T09:28:06.621Z,24.08
2023-05-09T09:30:16.100Z,24.79
2023-05-09T09:32:25.170Z,23.39
2023-05-09T09:34:33.062Z,24.35
2023-05-09T09:36:43.724Z,22.98
2023-05-09T09:38:51.692Z,22.91
2023-05-09T09:41:00.708Z,24.46
2023-05-09T09:43:10.132Z,24.70
2023-05-09T09:45:20.370Z,22.94
2023-05-09T09:47:34.841Z,21.96
2023-05-09T09:49:49.626Z,23.55
2023-05-09T09:52:01.258Z,24.28
2023-05-09T09:54:10.681Z,25.48
2023-05-09T09:56:18.499Z,23.52
2023-05-09T09:58:29.817Z,23.12
2023-05-09T10:00:37.913Z,22.50
2023-05-09T10:02:53.562Z,22.65
2023-05-09T10:05:10.041Z,22.59
2023-05-09T10:07:25.188Z,22.51
2023-05-09T10:09:33.185Z,21.98
2023-05-09T10:11:41.194Z,21.17
2023-05-09T10:13:49.581Z,21.70
2023-05-09T10:15:58.413Z,20.91
2023-05-09T10:18:08.738Z,21.09
2023-05-09T10:20:17.516Z,21.85
2023-05-09T10:22:28.255Z,21.65
2023-05-09T10:24:38.518Z,22.54
2023-05-09T10:26:52.775Z,23.31
2023-05-09T10:29:02.973Z,22.48
2023-05-09T10:31:19.079Z,22.67
2023-05-09T10:33:29.699Z,23.39
2023-05-09T10:35:40.528Z,24.28
2023-05-09T10:37:51.191Z,23.69
2023-05-09T10:40:00.542Z,23.79
2023-05-09T10:42:08.936Z,25.07
2023-05-09T10:44:16.966Z,24.63
2023-05-09T10:46:27.505Z,25.07
2023-05-09T10:48:36.443Z,25.36
2023-05-09T10:50:44.700Z,25.21
2023-05-09T10:53:14.293Z,24.37
2023-05-09T10:55:22.729Z,24.88
2023-05-09T10:57:31.748Z,23.56
2023-05-09T10:59:41.611Z,24.13
2023-05-09T11:01:49.604Z,23.35
2023-05-09T11:03:59.395Z,23.23
2023-05-09T11:06:07.498Z,24.70
2023-05-09T11:08:26.116Z,24.51
2023-05-09T11:10:45.621Z,24.85
2023-05-09T11:12:58.389Z,24.92
2023-05-09T11:15:11.116Z,25.40
2023-05-09T11:17:32.600Z,25.68
2023-05-09T11:19:59.626Z,25.54
2023-05-09T11:22:18.676Z,23.73
2023-05-09T11:24:31.862Z,23.56
2023-05-09T11:26:40.448Z,23.04
2023-05-09T11:28:56.995Z,22.97
2023-05-09T11:31:12.813Z,23.64
2023-05-09T11:33:27.864Z,23.87
2023-05-09T11:37:49.968Z,23.26
2023-05-09T11:40:06.060Z,23.66
2023-05-09T11:42:14.382Z,23.63
2023-05-09T11:44:24.015Z,23.61
2023-05-09T11:46:32.255Z,22.26
2023-05-09T11:48:43.616Z,22.23
2023-05-09T11:50:51.828Z,22.57
2023-05-09T11:52:59.866Z,22.65
2023-05-09T11:55:14.576Z,22.14
2023-05-09T11:57:23.383Z,22.37
2023-05-09T11:59:31.689Z,21.71
2023-05-09T12:01:39.759Z,21.83
2023-05-09T12:03:48.211Z,21.74
2023-05-09T12:05:57.966Z,22.58
2023-05-09T12:08:07.380Z,22.79
2023-05-09T12:10:19.445Z,22.09
2023-05-09T12:12:27.624Z,22.29
2023-05-09T12:14:37.515Z,22.50
2023-05-09T12:16:48.872Z,22.31
2023-05-09T12:18:58.093Z,22.62
2023-05-09T12:21:07.385Z,22.61
2023-05-09T12:23:16.180Z,22.47
2023-05-09T12:25:26.684Z,21.27
2023-05-09T12:27:35.036Z,21.42
2023-05-09T12:29:46.264Z,21.25
2023-05-09T12:31:56.058Z,21.85
2023-05-09T12:34:04.516Z,22.20
2023-05-09T12:36:14.014Z,22.20
2023-05-09T12:38:25.852Z,22.39
2023-05-09T12:40:37.312Z,21.83
2023-05-09T12:42:48.127Z,21.58
2023-05-09T12:44:56.044Z,21.34
2023-05-09T12:47:05.894Z,21.88
2023-05-09T12:49:23.023Z,21.98
2023-05-09T12:51:30.985Z,22.42
2023-05-09T12:53:41.765Z,22.50
2023-05-09T12:55:52.467Z,21.94
2023-05-09T12:58:02.082Z,22.04
2023-05-09T13:00:13.386Z,21.65
2023-05-09T13:02:21.516Z,21.83
2023-05-09T13:04:31.609Z,21.78
2023-05-09T13:06:51.184Z,21.47
2023-05-09T13:09:04.479Z,21.88
2023-05-09T13:11:17.567Z,22.45
2023-05-09T13:13:28.200Z,22.50
2023-05-09T13:15:36.472Z,23.10
2023-05-09T13:17:44.496Z,23.30
2023-05-09T13:19:52.597Z,22.95
2023-05-09T13:22:00.787Z,22.21
2023-05-09T13:24:09.496Z,21.98
2023-05-09T13:26:20.000Z,22.65
2023-05-09T13:28:27.852Z,23.09
2023-05-09T13:30:35.929Z,22.66
2023-05-09T13:32:43.888Z,22.69
2023-05-09T13:34:52.019Z,22.39
2023-05-09T13:36:59.962Z,22.34
2023-05-09T13:39:08.217Z,22.30
2023-05-09T13:41:20.501Z,21.95
2023-05-09T13:43:31.202Z,22.31
2023-05-09T13:45:39.243Z,22.51
2023-05-09T13:47:47.231Z,22.37
2023-05-09T13:49:55.532Z,22.20
2023-05-09T13:52:03.670Z,22.22
2023-05-09T13:54:13.211Z,22.37
2023-05-09T13:56:21.397Z,22.38
2023-05-09T13:58:32.214Z,22.35
2023-05-09T14:00:41.041Z,22.66
2023-05-09T14:02:49.611Z,22.70
2023-05-09T14:04:59.020Z,22.45
2023-05-09T14:07:06.960Z,21.84
2023-05-09T14:09:15.591Z,21.96
2023-05-09T14:11:23.871Z,22.00
2023-05-09T14:13:34.718Z,22.38
2023-05-09T14:15:43.092Z,22.05
2023-05-09T14:17:51.220Z,22.09
2023-05-09T14:19:59.184Z,22.09
2023-05-09T14:22:07.737Z,22.13
2023-05-09T14:24:16.504Z,22.08
2023-05-09T14:26:26.743Z,21.84
2023-05-09T14:28:37.892Z,21.55
2023-05-09T14:30:45.882Z,20.41
2023-05-09T14:32:54.424Z,19.26
2023-05-09T14:35:02.626Z,17.48
2023-05-09T14:37:13.993Z,16.80
2023-05-09T14:39:21.912Z,16.54
2023-05-09T14:41:29.833Z,16.29
2023-05-09T14:43:40.385Z,16.16
2023-05-09T14:45:48.413Z,15.88
2023-05-09T14:47:56.428Z,15.89
2023-05-09T14:50:04.672Z,15.85
2023-05-09T14:52:13.949Z,15.67
2023-05-09T14:54:21.961Z,15.46
2023-05-09T14:56:30.115Z,15.35
2023-05-09T14:58:40.928Z,15.35
2023-05-09T15:00:49.081Z,15.37
2023-05-09T15:02:57.957Z,15.39
2023-05-09T15:05:06.829Z,15.42
2023-05-09T15:07:14.678Z,15.67
2023-05-09T15:09:22.653Z,15.77
2023-05-09T15:11:39.940Z,15.93
2023-05-09T15:13:57.999Z,16.02
2023-05-09T15:16:06.093Z,16.20
2023-05-09T15:18:16.805Z,16.51
2023-05-09T15:20:24.646Z,16.78
2023-05-09T15:22:33.965Z,16.89
2023-05-09T15:24:44.300Z,17.11
2023-05-09T15:26:52.487Z,17.20
2023-05-09T15:29:03.060Z,17.20
2023-05-09T15:31:11.235Z,17.26
2023-05-09T15:33:19.494Z,17.20
2023-05-09T15:35:27.601Z,17.34
2023-05-09T15:37:35.916Z,17.50
2023-05-09T15:39:45.772Z,17.55
2023-05-09T15:41:54.184Z,17.71
2023-05-09T15:44:04.670Z,17.78
2023-05-09T15:46:12.639Z,17.86
2023-05-09T15:48:21.252Z,17.96
2023-05-09T15:50:29.290Z,18.10
2023-05-09T15:52:37.543Z,18.20
2023-05-09T15:54:45.718Z,17.98
2023-05-09T15:56:53.685Z,18.09
2023-05-09T15:59:04.291Z,18.17
2023-05-09T16:01:14.632Z,18.19
2023-05-09T16:03:23.422Z,18.35
2023-05-09T16:05:31.551Z,18.34
2023-05-09T16:07:39.595Z,18.23
2023-05-09T16:09:47.498Z,18.15
2023-05-09T16:11:55.388Z,18.16
2023-05-09T16:14:08.638Z,18.17
2023-05-09T16:16:16.910Z,18.22
2023-05-09T16:18:24.776Z,18.22
2023-05-09T16:20:32.889Z,18.31
2023-05-09T16:22:41.186Z,18.27
2023-05-09T16:24:49.400Z,18.02
2023-05-09T16:26:57.320Z,18.04
2023-05-09T16:29:07.990Z,18.06
2023-05-09T16:31:16.035Z,18.12
2023-05-09T16:33:23.936Z,18.15
2023-05-09T16:35:31.934Z,17.93
2023-05-09T16:37:40.068Z,18.07
2023-05-09T16:39:47.970Z,18.11
2023-05-09T16:41:55.934Z,18.07
2023-05-09T16:44:03.745Z,17.93
2023-05-09T16:46:14.364Z,17.82
2023-05-09T16:48:22.620Z,17.78
2023-05-09T16:50:30.732Z,17.68
2023-05-09T16:52:39.010Z,17.44
2023-05-09T16:54:46.954Z,17.09
2023-05-09T16:56:55.081Z,16.81
2023-05-09T16:59:03.258Z,16.58
2023-05-09T17:01:11.552Z,16.46
2023-05-09T17:03:22.181Z,16.25
2023-05-09T17:05:30.180Z,16.01
2023-05-09T17:07:38.018Z,15.88
2023-05-09T17:09:46.588Z,15.87
2023-05-09T17:11:54.509Z,15.70
2023-05-09T17:14:04.651Z,15.49
2023-05-09T17:16:12.691Z,15.47
2023-05-09T17:18:35.962Z,15.38
2023-05-09T17:20:44.993Z,15.39
2023-05-09T17:22:52.953Z,15.50
2023-05-09T17:25:00.983Z,15.38
2023-05-09T17:27:11.080Z,15.32
2023-05-09T17:29:19.233Z,15.33
2023-05-09T17:31:27.142Z,15.39
2023-05-09T17:33:37.722Z,15.34
2023-05-09T17:35:45.765Z,15.32
2023-05-09T17:37:53.687Z,15.28
2023-05-09T17:40:01.921Z,15.23
2023-05-09T17:42:10.339Z,15.11
2023-05-09T17:44:19.465Z,15.07
2023-05-09T17:46:27.930Z,15.11
2023-05-09T17:48:38.935Z,15.04
2023-05-09T17:50:46.972Z,15.00
2023-05-09T17:52:56.983Z,15.20
2023-05-09T17:55:05.326Z,15.17
2023-05-09T17:57:13.299Z,15.32
2023-05-09T17:59:21.629Z,15.18
2023-05-09T18:01:29.679Z,14.95
2023-05-09T18:03:40.437Z,14.91
2023-05-09T18:05:48.931Z,14.81
2023-05-09T18:07:56.882Z,14.67
2023-05-09T18:10:05.428Z,14.50
2023-05-09T18:12:16.008Z,14.45
2023-05-09T18:14:23.916Z,14.34
2023-05-09T18:16:32.040Z,14.32
2023-05-09T18:18:42.887Z,14.24
2023-05-09T18:20:50.806Z,14.22
2023-05-09T18:22:59.670Z,14.14
2023-05-09T18:25:08.601Z,14.10
2023-05-09T18:27:16.538Z,14.08
2023-05-09T18:29:24.618Z,14.13
2023-05-09T18:31:34.291Z,14.07
2023-05-09T18:33:45.196Z,14.07
2023-05-09T18:35:53.518Z,14.00
2023-05-09T18:38:01.586Z,13.99
2023-05-09T18:40:15.616Z,13.95
2023-05-09T18:42:23.856Z,13.95
2023-05-09T18:44:32.740Z,14.06
2023-05-09T18:46:41.629Z,14.16
2023-05-09T18:48:53.862Z,14.10
2023-05-09T18:51:02.225Z,14.25
2023-05-09T18:53:10.339Z,14.21
2023-05-09T18:55:19.920Z,14.30
2023-05-09T18:57:28.106Z,14.25
2023-05-09T18:59:37.324Z,14.21
2023-05-09T19:01:45.562Z,14.26
2023-05-09T19:03:56.588Z,14.21
2023-05-09T19:06:04.649Z,14.19
2023-05-09T19:08:12.798Z,14.21
2023-05-09T19:10:20.771Z,14.15
2023-05-09T19:12:28.818Z,14.09
2023-05-09T19:14:38.093Z,14.05
2023-05-09T19:16:50.472Z,14.17
2023-05-09T19:19:02.076Z,14.14
2023-05-09T19:21:13.416Z,14.24
2023-05-09T19:23:27.387Z,14.14
2023-05-09T19:25:38.025Z,14.14
2023-05-09T19:27:46.075Z,14.14
2023-05-09T19:29:54.419Z,14.14
2023-05-09T19:32:03.383Z,14.24
2023-05-09T19:34:14.049Z,14.21
2023-05-09T19:36:24.858Z,14.13
2023-05-09T19:38:35.929Z,14.12
2023-05-09T19:40:44.512Z,14.09
2023-05-09T19:42:52.452Z,14.13
2023-05-09T19:45:04.446Z,14.02
2023-05-09T19:47:14.616Z,14.04
2023-05-09T19:49:25.193Z,14.01
2023-05-09T19:51:33.333Z,14.01
2023-05-09T19:53:41.452Z,13.99
2023-05-09T19:55:49.716Z,13.99
2023-05-09T19:57:57.780Z,13.95
2023-05-09T20:00:07.261Z,13.97
2023-05-09T20:02:15.313Z,13.96
2023-05-09T20:04:25.995Z,13.87
2023-05-09T20:06:34.005Z,13.82
2023-05-09T20:08:41.913Z,13.83
2023-05-09T20:10:49.866Z,13.78
2023-05-09T20:12:59.439Z,13.80
2023-05-09T20:15:08.548Z,13.79
2023-05-09T20:17:16.533Z,13.72
2023-05-09T20:19:27.191Z,13.71
2023-05-09T20:21:35.124Z,13.73
2023-05-09T20:23:45.044Z,13.72
2023-05-09T20:25:53.030Z,13.74
2023-05-09T20:28:00.954Z,13.64
2023-05-09T20:30:10.403Z,13.70
2023-05-09T20:32:18.413Z,13.60
2023-05-09T20:34:28.836Z,13.60
2023-05-09T20:36:36.867Z,13.56
2023-05-09T20:38:44.738Z,13.57
2023-05-09T20:40:52.688Z,13.56
2023-05-09T20:43:00.691Z,13.52
2023-05-09T20:45:10.021Z,13.54
2023-05-09T20:47:17.904Z,13.55
2023-05-09T20:49:28.868Z,13.50
2023-05-09T20:51:36.833Z,13.54
2023-05-09T20:53:44.796Z,13.48
2023-05-09T20:55:52.823Z,13.48
2023-05-09T20:58:00.671Z,13.58
2023-05-09T21:00:11.205Z,13.56
2023-05-09T21:02:19.124Z,13.64
2023-05-09T21:04:30.078Z,13.67
2023-05-09T21:06:38.410Z,13.60
2023-05-09T21:08:46.278Z,13.53
2023-05-09T21:10:55.326Z,13.54
2023-05-09T21:13:04.761Z,13.54
2023-05-09T21:15:14.020Z,13.49
2023-05-09T21:17:22.545Z,13.46
2023-05-09T21:19:34.338Z,13.46
2023-05-09T21:21:42.336Z,13.46
2023-05-09T21:23:50.243Z,13.41
2023-05-09T21:25:58.224Z,13.48
2023-05-09T21:28:09.320Z,13.48
2023-05-09T21:30:18.057Z,13.44
2023-05-09T21:32:26.292Z,13.43
2023-05-09T21:34:37.055Z,13.42
2023-05-09T21:36:45.054Z,13.39
2023-05-09T21:38:52.928Z,13.36
2023-05-09T21:41:01.145Z,13.33
2023-05-09T21:43:09.335Z,13.37
2023-05-09T21:45:18.750Z,13.42
2023-05-09T21:47:26.788Z,13.35
2023-05-09T21:49:37.469Z,13.36
2023-05-09T21:51:45.542Z,13.37
2023-05-09T21:53:53.490Z,13.28
2023-05-09T21:56:01.466Z,13.31
2023-05-09T21:58:09.445Z,13.26
2023-05-09T22:00:19.466Z,13.26
2023-05-09T22:02:27.564Z,13.23
2023-05-09T22:04:38.218Z,13.27
2023-05-09T22:06:46.253Z,13.22
2023-05-09T22:08:54.184Z,13.20
2023-05-09T22:11:02.181Z,13.16
2023-05-09T22:13:10.338Z,13.29
2023-05-09T22:15:18.287Z,13.25
2023-05-09T22:17:27.003Z,13.19
2023-05-09T22:19:38.568Z,13.22
2023-05-09T22:21:46.590Z,13.20
2023-05-09T22:23:54.490Z,13.21
2023-05-09T22:26:02.482Z,13.20
2023-05-09T22:28:10.615Z,13.20
2023-05-09T22:30:18.717Z,13.13
2023-05-09T22:32:26.811Z,13.14
2023-05-09T22:34:38.465Z,13.12
2023-05-09T22:36:46.323Z,13.13
2023-05-09T22:38:54.201Z,13.13
2023-05-09T22:41:02.075Z,13.12
2023-05-09T22:43:10.878Z,13.04
2023-05-09T22:45:18.848Z,13.02
2023-05-09T22:47:27.399Z,13.07
2023-05-09T22:49:38.381Z,13.13
2023-05-09T22:51:46.418Z,13.02
2023-05-09T22:53:54.338Z,13.05
2023-05-09T22:56:02.324Z,13.09
2023-05-09T22:58:10.315Z,13.05
2023-05-09T23:00:19.286Z,13.07
2023-05-09T23:02:29.087Z,13.09
2023-05-09T23:04:39.713Z,13.11
2023-05-09T23:06:47.605Z,13.20
2023-05-09T23:08:55.514Z,13.10
2023-05-09T23:11:03.528Z,13.12
2023-05-09T23:13:11.528Z,13.08
2023-05-09T23:15:19.411Z,13.13
2023-05-09T23:17:27.442Z,13.17
2023-05-09T23:19:35.492Z,13.18
2023-05-09T23:21:46.105Z,13.12
2023-05-09T23:23:53.992Z,13.12
2023-05-09T23:26:02.075Z,13.13
2023-05-09T23:28:09.980Z,13.08
2023-05-09T23:30:18.354Z,13.11
2023-05-09T23:32:26.472Z,13.10
2023-05-09T23:34:36.448Z,13.10
2023-05-09T23:36:47.239Z,13.08
2023-05-09T23:38:55.214Z,13.05
2023-05-09T23:41:03.336Z,13.10
2023-05-09T23:43:11.239Z,13.14
2023-05-09T23:45:19.203Z,12.98
2023-05-09T23:47:27.069Z,13.03
2023-05-09T23:49:35.038Z,13.02
2023-05-09T23:51:43.036Z,12.95
2023-05-09T23:53:53.669Z,12.98
2023-05-09T23:56:01.535Z,12.93
2023-05-09T23:58:09.739Z,13.04
